Time;durP1;ratioP1;P1;durP2;ratioP2;P2;SDS_P1;SDS_P2;PMS_P1;PMS_P2;Temp;Humidity;BMP_temperature;BMP_pressure;BME280_temperature;BME280_humidity;BME280_pressure;Samples;Min_cycle;Max_cycle;Signal;HPM_P1;HPM_P2
2022/11/05 00:16:42;;;;;;;10.40;10.00;;;10.90;49.00;;;;;;4992178;28;20455;-49
2022/11/05 00:16:50;;;;;;;9.23;8.83;;;10.80;49.30;;;;;;4972485;28;20818;-52
2022/11/05 00:19:16;;;;;;;9.63;9.23;;;10.80;49.70;;;;;;4993714;28;21006;-51
2022/11/05 00:27:10;;;;;;;10.27;9.87;;;10.80;48.90;;;;;;5011568;28;20466;-47
2022/11/05 00:29:36;;;;;;;10.03;9.30;;;10.80;49.00;;;;;;4993625;28;21307;-52
2022/11/05 00:32:02;;;;;;;9.37;8.87;;;10.70;49.50;;;;;;4993937;28;20234;-50
2022/11/05 00:34:27;;;;;;;9.63;9.23;;;10.80;49.50;;;;;;4997100;28;20252;-53
2022/11/05 00:36:53;;;;;;;9.13;8.80;;;10.80;49.00;;;;;;4996332;28;20457;-53
2022/11/05 00:39:19;;;;;;;8.70;8.30;;;10.80;49.20;;;;;;4992296;28;20224;-53
2022/11/05 00:44:58;;;;;;;9.20;8.60;;;10.90;49.30;;;;;;4986242;28;20279;-50
2022/11/05 00:49:58;;;;;;;9.30;8.90;;;11.00;48.50;;;;;;4990253;28;20565;-53
2022/11/05 00:55:08;;;;;;;9.20;8.80;;;11.00;47.90;;;;;;4992292;28;20294;-51
2022/11/05 00:57:33;;;;;;;9.10;8.70;;;11.20;47.80;;;;;;4972658;28;20468;-48
2022/11/05 00:59:59;;;;;;;9.27;8.87;;;11.40;47.20;;;;;;4972748;28;20264;-49
2022/11/05 01:02:24;;;;;;;8.77;8.47;;;11.50;46.60;;;;;;4970959;28;20882;-47
2022/11/05 01:04:50;;;;;;;8.73;8.43;;;11.30;46.70;;;;;;4972258;28;20315;-51
2022/11/05 01:07:16;;;;;;;9.40;9.00;;;11.20;47.30;;;;;;4972812;28;20238;-51
2022/11/05 01:09:41;;;;;;;9.67;9.17;;;11.30;47.80;;;;;;4973932;28;20315;-47
2022/11/05 01:12:07;;;;;;;10.03;9.60;;;11.20;47.30;;;;;;4974171;28;20240;-48
2022/11/05 01:14:33;;;;;;;9.23;8.83;;;11.30;48.50;;;;;;4972266;28;20231;-47
2022/11/05 01:16:58;;;;;;;9.80;9.30;;;11.30;47.10;;;;;;4971847;28;20229;-47
2022/11/05 01:19:24;;;;;;;9.30;8.87;;;11.00;47.10;;;;;;4972881;28;20237;-59
2022/11/05 01:21:49;;;;;;;9.90;9.50;;;10.80;48.10;;;;;;4970876;28;20312;-50
2022/11/05 01:24:15;;;;;;;9.97;9.47;;;10.80;48.60;;;;;;4972950;28;20302;-49
2022/11/05 01:26:41;;;;;;;8.80;8.43;;;10.90;49.00;;;;;;4971884;28;20243;-50
2022/11/05 01:29:06;;;;;;;9.27;8.97;;;11.00;49.00;;;;;;4971587;28;20236;-52
2022/11/05 01:31:32;;;;;;;10.03;9.60;;;10.90;49.60;;;;;;4971708;28;20290;-48
2022/11/05 01:33:59;;;;;;;9.40;9.10;;;10.90;49.40;;;;;;4970380;28;20232;-50
2022/11/05 01:36:25;;;;;;;9.07;8.77;;;10.90;49.10;;;;;;4974003;28;20266;-50
2022/11/05 01:38:50;;;;;;;8.93;8.60;;;10.90;48.90;;;;;;4971572;28;20885;-50
2022/11/05 01:41:16;;;;;;;10.03;9.37;;;10.90;49.60;;;;;;4989526;28;20638;-52
2022/11/05 01:43:58;;;;;;;9.33;9.03;;;11.00;48.80;;;;;;4970248;28;20307;-48
2022/11/05 01:46:39;;;;;;;11.10;9.73;;;11.10;48.30;;;;;;4972375;28;20247;-60
2022/11/05 01:49:22;;;;;;;9.57;9.07;;;11.20;47.60;;;;;;4972603;28;20791;-49
2022/11/05 01:51:48;;;;;;;9.33;8.97;;;11.10;47.00;;;;;;4971247;28;20452;-48
2022/11/05 01:54:17;;;;;;;9.80;9.33;;;11.00;47.80;;;;;;4970991;28;20460;-51
2022/11/05 01:56:48;;;;;;;9.53;9.13;;;11.10;47.70;;;;;;4971193;28;20952;-51
2022/11/05 01:59:19;;;;;;;8.57;8.27;;;11.30;47.00;;;;;;4951402;28;20491;-47
2022/11/05 02:01:45;;;;;;;9.60;9.23;;;11.30;47.00;;;;;;4959849;28;20543;-51
2022/11/05 02:04:19;;;;;;;9.20;8.80;;;11.30;46.80;;;;;;4961315;28;20962;-49
2022/11/05 02:06:45;;;;;;;9.13;8.80;;;11.10;46.80;;;;;;4960608;28;20608;-50
2022/11/05 02:09:21;;;;;;;9.53;9.13;;;11.10;48.20;;;;;;4966264;28;20465;-50
2022/11/05 02:11:48;;;;;;;9.00;8.70;;;11.00;48.80;;;;;;4966697;28;20463;-52
2022/11/05 02:14:14;;;;;;;8.83;8.53;;;10.90;48.90;;;;;;4971136;28;20458;-52
2022/11/05 02:16:57;;;;;;;9.00;8.70;;;10.80;48.90;;;;;;4972291;28;20456;-53
2022/11/05 02:20:00;;;;;;;9.57;9.17;;;10.80;48.90;;;;;;4968081;28;20260;-60
2022/11/05 02:22:44;;;;;;;9.23;8.93;;;10.80;49.70;;;;;;4970747;28;20455;-60
2022/11/05 02:25:52;;;;;;;9.20;8.90;;;10.70;50.40;;;;;;4987483;28;20455;-59
2022/11/05 02:28:36;;;;;;;8.73;8.53;;;10.70;49.80;;;;;;4933801;28;20957;-60
2022/11/05 02:31:10;;;;;;;9.23;8.83;;;10.80;50.20;;;;;;4970244;28;20486;-48
2022/11/05 02:33:59;;;;;;;9.20;8.90;;;10.80;50.10;;;;;;4969435;28;20452;-50
2022/11/05 02:36:24;;;;;;;8.47;8.17;;;10.80;49.90;;;;;;4971460;28;20483;-49
2022/11/05 02:39:04;;;;;;;9.00;8.43;;;10.90;49.70;;;;;;4987002;28;20820;-52
2022/11/05 02:41:39;;;;;;;8.73;8.37;;;11.00;48.70;;;;;;4973387;28;20227;-53
2022/11/05 02:44:14;;;;;;;8.90;8.60;;;11.00;48.80;;;;;;4979141;28;20546;-48
2022/11/05 02:47:01;;;;;;;9.40;9.10;;;11.00;48.50;;;;;;4967225;28;20824;-53
2022/11/05 02:49:40;;;;;;;9.07;8.73;;;10.90;48.00;;;;;;4966074;28;20893;-50
2022/11/05 02:52:15;;;;;;;8.80;8.40;;;11.00;48.50;;;;;;4970807;28;20578;-52
2022/11/05 02:55:04;;;;;;;8.70;8.30;;;11.10;47.40;;;;;;4968569;28;20458;-47
2022/11/05 02:57:36;;;;;;;8.27;7.97;;;11.20;46.80;;;;;;4983237;28;20491;-48
2022/11/05 03:00:06;;;;;;;8.90;8.60;;;11.10;47.40;;;;;;4968172;28;20451;-50
2022/11/05 03:02:32;;;;;;;8.40;8.07;;;11.20;47.80;;;;;;4969333;28;20952;-47
2022/11/05 03:04:59;;;;;;;8.43;8.13;;;11.30;47.40;;;;;;4970536;28;20452;-52
2022/11/05 03:07:53;;;;;;;8.93;8.63;;;11.40;46.90;;;;;;4968700;28;20559;-50
2022/11/05 03:10:44;;;;;;;8.53;8.13;;;11.30;47.40;;;;;;4969854;28;20459;-50
2022/11/05 03:13:15;;;;;;;9.30;8.83;;;11.30;47.70;;;;;;4968658;28;20577;-52
2022/11/05 03:15:49;;;;;;;8.87;8.57;;;11.20;48.50;;;;;;4968349;28;20464;-51
2022/11/05 03:18:37;;;;;;;9.50;9.17;;;11.10;48.60;;;;;;4964181;28;20460;-50
2022/11/05 03:21:13;;;;;;;9.80;9.50;;;11.00;49.50;;;;;;4973512;28;20471;-52
2022/11/05 03:23:48;;;;;;;8.97;8.60;;;11.00;50.10;;;;;;4966199;28;22866;-48
2022/11/05 03:26:27;;;;;;;9.20;8.90;;;10.90;50.70;;;;;;4964625;28;20579;-52
2022/11/05 03:29:07;;;;;;;9.47;9.17;;;10.90;51.10;;;;;;4982942;28;20451;-49
2022/11/05 03:31:35;;;;;;;8.87;8.40;;;10.80;51.40;;;;;;4985264;28;20517;-54
2022/11/05 03:34:03;;;;;;;9.13;8.83;;;10.70;51.70;;;;;;4990829;28;20450;-52
2022/11/05 03:36:41;;;;;;;8.60;8.30;;;10.80;51.30;;;;;;5008577;28;20977;-52
2022/11/05 03:39:16;;;;;;;9.47;9.17;;;10.90;51.80;;;;;;4988634;28;20446;-51
2022/11/05 03:41:46;;;;;;;8.27;7.97;;;10.80;51.50;;;;;;4988500;28;20435;-51
2022/11/05 03:44:15;;;;;;;9.30;9.00;;;10.90;52.20;;;;;;4989402;28;20440;-50
2022/11/05 03:46:46;;;;;;;9.47;9.07;;;11.00;51.30;;;;;;4992273;28;20471;-51
2022/11/05 03:49:37;;;;;;;9.23;8.53;;;10.80;51.10;;;;;;4993457;28;20455;-50
2022/11/05 03:52:05;;;;;;;9.10;8.80;;;10.90;52.20;;;;;;4992858;28;20461;-49
2022/11/05 03:54:32;;;;;;;9.30;8.90;;;10.80;52.50;;;;;;4990797;28;20447;-50
2022/11/05 03:57:22;;;;;;;8.47;8.17;;;10.70;54.20;;;;;;4992392;28;21111;-49
2022/11/05 03:59:49;;;;;;;8.47;8.00;;;10.80;54.50;;;;;;4991793;28;20459;-49
2022/11/05 04:02:18;;;;;;;9.00;8.60;;;11.00;53.80;;;;;;4995514;28;20488;-50
2022/11/05 04:04:44;;;;;;;9.13;8.73;;;10.90;52.50;;;;;;4992403;28;20454;-47
2022/11/05 04:15:23;;;;;;;9.43;9.03;;;10.90;54.50;;;;;;5011235;28;21021;-48
2022/11/05 04:17:49;;;;;;;7.83;7.53;;;10.90;54.90;;;;;;4995012;28;20459;-60
2022/11/05 04:25:49;;;;;;;8.60;8.30;;;10.70;55.90;;;;;;5014954;28;20534;-60
2022/11/05 04:28:15;;;;;;;9.37;8.97;;;10.80;56.00;;;;;;4997473;28;21059;-60
2022/11/05 04:30:43;;;;;;;8.30;8.00;;;10.80;55.50;;;;;;5015330;28;20451;-60
2022/11/05 04:33:15;;;;;;;9.20;8.80;;;10.80;55.50;;;;;;4998736;28;20691;-60
2022/11/05 04:35:43;;;;;;;8.63;8.33;;;10.70;55.90;;;;;;4999048;28;20865;-49
2022/11/05 04:38:11;;;;;;;7.90;7.70;;;10.70;55.30;;;;;;5000071;28;20447;-60
2022/11/05 04:40:37;;;;;;;8.43;8.13;;;10.80;55.90;;;;;;4997995;28;20955;-61
2022/11/05 04:43:04;;;;;;;8.57;8.17;;;11.00;55.10;;;;;;4998179;28;20491;-61
2022/11/05 04:45:33;;;;;;;8.17;7.87;;;11.10;55.20;;;;;;4999397;28;20592;-59
2022/11/05 04:47:59;;;;;;;8.47;8.17;;;11.10;53.10;;;;;;4999397;28;20902;-60
2022/11/05 04:50:25;;;;;;;8.97;8.57;;;11.10;54.20;;;;;;5001361;28;20470;-59
2022/11/05 04:52:50;;;;;;;7.60;7.40;;;11.10;53.90;;;;;;5001180;28;20545;-60
2022/11/05 04:55:16;;;;;;;9.03;8.50;;;11.10;53.90;;;;;;5001056;28;20728;-61
2022/11/05 04:57:42;;;;;;;8.10;7.80;;;10.90;54.10;;;;;;5002932;28;20232;-60
2022/11/05 05:00:09;;;;;;;7.90;7.60;;;10.90;54.90;;;;;;4999597;28;20520;-61
2022/11/05 05:02:36;;;;;;;8.37;8.07;;;10.90;54.80;;;;;;5001536;28;20459;-59
2022/11/05 05:05:02;;;;;;;7.57;7.37;;;10.70;54.40;;;;;;4999807;28;20455;-59
2022/11/05 05:07:28;;;;;;;7.80;7.50;;;10.60;55.60;;;;;;5000891;28;20459;-61
2022/11/05 05:09:54;;;;;;;7.40;7.20;;;10.70;55.90;;;;;;5018052;28;20455;-60
2022/11/05 05:12:20;;;;;;;8.10;7.80;;;10.90;55.60;;;;;;5001488;28;20466;-61
2022/11/05 05:14:48;;;;;;;8.33;8.13;;;11.00;55.10;;;;;;5001051;28;20255;-48
2022/11/05 05:17:14;;;;;;;8.27;7.77;;;10.90;55.40;;;;;;5001745;28;20466;-50
2022/11/05 05:22:24;;;;;;;8.60;8.30;;;10.80;55.30;;;;;;5019328;28;20450;-50
2022/11/05 05:24:50;;;;;;;8.90;8.60;;;10.70;55.70;;;;;;5000275;28;20840;-60
2022/11/05 05:27:15;;;;;;;8.90;8.60;;;10.80;56.00;;;;;;5017161;28;20228;-60
2022/11/05 05:29:41;;;;;;;10.20;9.60;;;10.90;55.50;;;;;;4999173;28;20315;-60
2022/11/05 05:32:07;;;;;;;10.47;10.07;;;10.80;54.90;;;;;;5000362;28;20231;-59
2022/11/05 05:34:32;;;;;;;11.93;11.33;;;10.80;54.10;;;;;;5001627;28;20613;-59
2022/11/05 05:36:58;;;;;;;12.40;11.80;;;10.90;54.60;;;;;;4999156;28;20252;-57
2022/11/05 05:39:24;;;;;;;14.47;13.53;;;10.90;54.70;;;;;;5000446;28;20237;-59
2022/11/05 05:41:49;;;;;;;15.00;14.10;;;10.90;54.30;;;;;;5000366;28;20243;-60
2022/11/05 05:44:15;;;;;;;15.17;14.17;;;10.90;54.80;;;;;;4999846;28;20263;-60
2022/11/05 05:46:40;;;;;;;16.00;15.10;;;10.90;55.10;;;;;;5018197;28;20234;-59
2022/11/05 05:49:09;;;;;;;18.87;17.57;;;10.80;54.40;;;;;;5000634;28;20323;-60
2022/11/05 05:51:35;;;;;;;15.17;14.27;;;10.90;55.10;;;;;;4999757;28;20236;-60
2022/11/05 05:54:01;;;;;;;14.40;13.70;;;10.90;54.70;;;;;;5016851;28;20455;-60
2022/11/05 05:56:26;;;;;;;16.40;15.50;;;11.00;54.70;;;;;;5000458;28;20848;-61
2022/11/05 05:58:53;;;;;;;14.13;13.43;;;11.10;54.20;;;;;;5000427;28;20286;-59
2022/11/05 06:01:19;;;;;;;15.20;14.33;;;11.30;53.70;;;;;;4998481;28;20644;-60
2022/11/05 06:03:46;;;;;;;14.67;13.83;;;11.50;53.40;;;;;;4999745;28;20851;-59
2022/11/05 06:06:13;;;;;;;16.40;15.50;;;11.70;52.00;;;;;;4996568;28;20636;-59
2022/11/05 06:08:40;;;;;;;15.70;14.60;;;11.80;51.30;;;;;;4999775;28;20943;-60
2022/11/05 06:11:06;;;;;;;16.87;15.87;;;11.80;50.00;;;;;;4999520;28;20505;-61
2022/11/05 06:13:32;;;;;;;17.00;16.10;;;11.90;48.50;;;;;;4997875;28;20524;-60
2022/11/05 06:16:03;;;;;;;18.77;17.57;;;11.90;48.10;;;;;;4999251;28;20447;-56
2022/11/05 06:18:29;;;;;;;18.40;17.33;;;12.00;48.00;;;;;;4998776;28;20216;-60
2022/11/05 06:20:59;;;;;;;18.73;17.40;;;12.00;47.50;;;;;;4996670;28;20451;-59
2022/11/05 06:23:24;;;;;;;21.47;20.07;;;11.90;48.60;;;;;;4997167;28;20466;-60
2022/11/05 06:25:50;;;;;;;21.77;20.33;;;11.90;47.70;;;;;;4994669;28;20815;-59
2022/11/05 06:28:16;;;;;;;20.47;19.27;;;11.90;47.10;;;;;;4996271;28;20652;-60
2022/11/05 06:30:41;;;;;;;21.37;20.17;;;12.00;46.90;;;;;;4994188;28;20323;-59
2022/11/05 06:33:07;;;;;;;21.83;20.40;;;12.00;46.80;;;;;;4995328;28;20267;-60
2022/11/05 06:35:33;;;;;;;22.07;20.60;;;12.00;47.00;;;;;;4995305;28;20319;-60
2022/11/05 06:38:01;;;;;;;21.20;20.00;;;12.00;47.30;;;;;;4995073;28;20572;-50
2022/11/05 06:40:28;;;;;;;21.80;20.50;;;12.00;46.40;;;;;;4994884;28;20558;-47
2022/11/05 06:42:54;;;;;;;21.70;20.40;;;12.10;46.20;;;;;;4996218;28;20452;-50
2022/11/05 06:45:20;;;;;;;22.97;21.43;;;12.20;46.30;;;;;;4996940;28;20460;-51
2022/11/05 06:47:46;;;;;;;20.90;19.70;;;12.20;45.90;;;;;;4995693;28;20559;-52
2022/11/05 06:50:12;;;;;;;22.87;21.37;;;12.20;45.80;;;;;;4994207;28;20579;-49
2022/11/05 06:52:37;;;;;;;21.50;20.10;;;12.20;45.80;;;;;;4995673;28;20264;-59
2022/11/05 06:55:03;;;;;;;21.50;20.20;;;12.20;45.10;;;;;;4996316;28;20256;-59
2022/11/05 06:57:29;;;;;;;20.90;19.40;;;12.30;45.30;;;;;;4996108;28;20234;-60
2022/11/05 06:59:55;;;;;;;21.97;20.57;;;12.20;45.10;;;;;;4995276;28;20466;-61
2022/11/05 07:02:20;;;;;;;22.63;21.03;;;12.30;44.70;;;;;;4996487;28;20343;-60
2022/11/05 07:04:46;;;;;;;21.90;20.43;;;12.30;44.60;;;;;;4995690;28;20547;-61
2022/11/05 07:07:12;;;;;;;22.73;21.43;;;12.30;44.60;;;;;;4995157;28;20236;-61
2022/11/05 07:09:39;;;;;;;22.77;21.20;;;12.40;44.50;;;;;;4995816;28;20233;-60
2022/11/05 07:12:05;;;;;;;22.27;20.90;;;12.40;44.40;;;;;;4994798;28;20700;-60
2022/11/05 07:14:31;;;;;;;22.30;21.00;;;12.40;44.10;;;;;;4995737;28;20460;-60
2022/11/05 07:16:57;;;;;;;22.50;21.00;;;12.40;43.70;;;;;;4995622;28;20459;-61
2022/11/05 07:19:22;;;;;;;22.73;21.30;;;12.40;43.80;;;;;;4998687;28;20332;-60
2022/11/05 07:21:49;;;;;;;23.10;21.60;;;12.40;44.40;;;;;;4997610;28;20275;-59
2022/11/05 07:24:15;;;;;;;22.33;20.97;;;12.50;44.60;;;;;;4995384;28;20225;-47
2022/11/05 07:26:41;;;;;;;22.63;21.13;;;12.50;43.80;;;;;;4993429;28;20476;-48
2022/11/05 07:29:07;;;;;;;22.37;20.97;;;12.50;43.70;;;;;;4993148;28;20259;-60
2022/11/05 07:31:32;;;;;;;22.27;20.77;;;12.40;43.70;;;;;;4998113;28;20217;-61
2022/11/05 07:33:58;;;;;;;21.97;20.57;;;12.40;43.70;;;;;;4995099;28;20287;-60
2022/11/05 07:36:24;;;;;;;23.00;21.50;;;12.30;43.60;;;;;;4997774;28;20225;-61
2022/11/05 07:38:50;;;;;;;23.00;21.73;;;12.30;43.70;;;;;;4983683;28;20320;-60
2022/11/05 07:41:16;;;;;;;23.20;21.70;;;12.20;43.50;;;;;;4983543;28;20539;-60
2022/11/05 07:43:42;;;;;;;21.03;19.70;;;12.20;43.50;;;;;;4976612;28;20589;-61
2022/11/05 07:46:07;;;;;;;22.00;20.63;;;12.20;43.80;;;;;;4979094;28;20448;-60
2022/11/05 07:48:33;;;;;;;24.00;22.50;;;12.20;44.80;;;;;;4996017;28;20233;-60
2022/11/05 07:50:59;;;;;;;22.60;21.20;;;12.00;44.40;;;;;;4994917;28;20229;-60
2022/11/05 07:53:24;;;;;;;23.53;21.93;;;12.10;46.00;;;;;;4997730;28;20227;-50
2022/11/05 07:55:51;;;;;;;22.53;20.90;;;12.00;45.70;;;;;;4996117;28;21616;-51
2022/11/05 07:58:17;;;;;;;23.60;22.07;;;12.10;46.80;;;;;;4995288;28;20225;-53
2022/11/05 08:00:43;;;;;;;21.80;20.50;;;12.10;45.90;;;;;;4995781;28;20535;-48
2022/11/05 08:03:14;;;;;;;22.70;21.30;;;12.20;45.80;;;;;;4992811;28;20527;-51
2022/11/05 08:05:44;;;;;;;22.17;20.77;;;12.10;45.40;;;;;;4992377;28;20228;-49
2022/11/05 08:08:15;;;;;;;22.40;20.90;;;12.10;45.90;;;;;;4972932;28;20465;-50
2022/11/05 08:10:42;;;;;;;20.63;19.20;;;12.10;46.00;;;;;;4969337;28;20465;-46
2022/11/05 08:13:08;;;;;;;18.33;17.33;;;12.10;46.00;;;;;;4969339;28;20540;-60
2022/11/05 08:15:34;;;;;;;18.73;17.73;;;12.20;45.70;;;;;;4972298;28;20503;-61
2022/11/05 08:18:02;;;;;;;19.43;18.23;;;12.10;45.70;;;;;;4970364;28;20850;-48
2022/11/05 08:20:31;;;;;;;17.73;16.83;;;12.20;44.50;;;;;;4968818;28;20453;-59
2022/11/05 08:22:57;;;;;;;15.80;15.00;;;12.10;44.40;;;;;;4973815;28;20464;-60
2022/11/05 08:25:23;;;;;;;15.07;14.17;;;12.10;44.70;;;;;;4973114;28;20471;-60
2022/11/05 08:28:15;;;;;;;41.73;38.53;;;12.00;43.40;;;;;;4993924;28;20232;-58
2022/11/05 08:30:41;;;;;;;16.60;15.70;;;11.90;43.30;;;;;;4994955;28;20447;-60
2022/11/05 08:33:09;;;;;;;15.00;14.27;;;11.80;43.20;;;;;;4995130;28;20459;-59
2022/11/05 08:35:36;;;;;;;13.57;13.00;;;11.80;43.20;;;;;;4997855;28;20225;-59
2022/11/05 08:38:04;;;;;;;14.30;13.50;;;11.60;43.00;;;;;;4998245;28;20451;-59
2022/11/05 08:40:32;;;;;;;13.30;12.70;;;11.50;43.70;;;;;;4994714;28;20464;-59
2022/11/05 08:43:03;;;;;;;13.60;13.00;;;11.50;44.50;;;;;;4998893;28;20464;-60
2022/11/05 08:45:30;;;;;;;13.57;12.97;;;11.40;44.80;;;;;;4996285;28;20460;-59
2022/11/05 08:48:03;;;;;;;13.10;12.40;;;11.40;44.90;;;;;;4977246;28;20457;-59
2022/11/05 08:50:31;;;;;;;12.40;11.90;;;11.40;45.10;;;;;;4989647;28;20822;-59
2022/11/05 08:52:57;;;;;;;14.17;13.57;;;11.40;45.50;;;;;;4981201;28;20452;-59
2022/11/05 08:55:22;;;;;;;14.50;13.70;;;11.50;45.70;;;;;;4977305;28;20457;-60
2022/11/05 08:57:56;;;;;;;15.00;14.30;;;11.50;45.00;;;;;;4979514;28;20257;-59
2022/11/05 09:00:22;;;;;;;13.23;12.63;;;11.50;44.50;;;;;;4981547;28;20257;-58
2022/11/05 09:02:48;;;;;;;13.33;12.63;;;11.50;44.70;;;;;;4998419;28;20486;-60
2022/11/05 09:05:14;;;;;;;13.30;12.70;;;11.50;44.00;;;;;;4997842;28;20514;-59
2022/11/05 09:07:39;;;;;;;13.40;12.80;;;11.50;44.20;;;;;;4997613;28;20438;-60
2022/11/05 09:10:05;;;;;;;13.53;12.90;;;11.50;45.00;;;;;;4997618;28;20228;-60
2022/11/05 09:12:31;;;;;;;16.50;15.50;;;11.30;46.90;;;;;;4998247;28;20221;-60
2022/11/05 09:14:56;;;;;;;14.57;13.87;;;11.20;47.90;;;;;;4998814;28;20456;-60
2022/11/05 09:17:22;;;;;;;13.47;12.77;;;11.20;47.20;;;;;;4981298;28;20649;-57
2022/11/05 09:19:48;;;;;;;13.93;13.33;;;11.20;47.50;;;;;;4978731;28;20506;-59
2022/11/05 09:22:14;;;;;;;14.27;13.57;;;11.20;46.90;;;;;;4985182;28;20315;-59
2022/11/05 09:24:40;;;;;;;12.67;12.03;;;11.30;45.80;;;;;;4996905;28;20764;-58
2022/11/05 09:27:15;;;;;;;13.77;12.97;;;11.30;46.20;;;;;;4982471;28;20492;-59
2022/11/05 09:29:41;;;;;;;13.53;12.87;;;11.20;47.00;;;;;;4997492;28;20455;-60
2022/11/05 09:32:07;;;;;;;13.90;13.30;;;11.20;46.80;;;;;;4999033;28;20492;-58
2022/11/05 09:34:33;;;;;;;14.27;13.57;;;11.20;46.10;;;;;;4997790;28;20559;-58
2022/11/05 09:36:58;;;;;;;14.90;14.10;;;11.20;46.30;;;;;;4998553;28;20521;-58
2022/11/05 09:39:24;;;;;;;13.90;13.30;;;11.20;46.00;;;;;;4997222;28;20872;-59
2022/11/05 09:41:53;;;;;;;13.70;13.00;;;11.30;45.50;;;;;;4997149;28;20255;-57
2022/11/05 09:44:36;;;;;;;14.40;13.70;;;11.30;45.40;;;;;;4997860;28;20460;-59
2022/11/05 09:47:06;;;;;;;15.30;14.50;;;11.30;45.20;;;;;;4997603;28;20494;-57
2022/11/05 09:49:40;;;;;;;15.27;14.47;;;11.20;46.50;;;;;;4997362;28;20862;-52
2022/11/05 09:52:14;;;;;;;15.00;14.20;;;10.90;48.50;;;;;;4997672;28;20455;-59
2022/11/05 09:54:40;;;;;;;16.60;15.50;;;10.90;48.70;;;;;;4997069;28;20751;-58
2022/11/05 09:57:15;;;;;;;15.20;14.43;;;11.00;47.70;;;;;;4985642;28;20446;-50
2022/11/05 09:59:51;;;;;;;16.40;15.30;;;11.10;47.50;;;;;;4994700;28;20509;-59
2022/11/05 10:02:19;;;;;;;17.57;16.47;;;11.20;47.00;;;;;;4981115;28;20464;-59
2022/11/05 10:04:47;;;;;;;17.30;16.20;;;11.30;46.60;;;;;;4979561;28;20487;-59
2022/11/05 10:07:17;;;;;;;16.30;15.40;;;11.40;46.00;;;;;;4979309;28;20467;-62
2022/11/05 10:09:46;;;;;;;16.87;15.97;;;11.50;45.90;;;;;;4996991;28;20456;-57
2022/11/05 10:12:27;;;;;;;16.97;16.17;;;11.50;44.90;;;;;;4996294;28;20664;-57
2022/11/05 10:15:23;;;;;;;18.77;17.67;;;11.60;44.70;;;;;;4997747;28;20448;-58
2022/11/05 10:17:55;;;;;;;17.50;16.50;;;11.50;45.50;;;;;;4994849;28;20456;-59
2022/11/05 10:20:38;;;;;;;17.60;16.60;;;11.30;46.30;;;;;;4995608;28;20502;-59
2022/11/05 10:23:10;;;;;;;18.27;17.27;;;11.10;48.50;;;;;;4980535;28;20500;-52
2022/11/05 10:25:42;;;;;;;17.77;16.53;;;11.20;48.70;;;;;;4994135;28;20455;-52
2022/11/05 10:28:16;;;;;;;18.40;17.40;;;11.10;47.00;;;;;;4976695;28;20469;-50
2022/11/05 10:30:43;;;;;;;18.70;17.50;;;11.10;47.70;;;;;;4976338;28;20548;-52
2022/11/05 10:33:13;;;;;;;17.60;16.60;;;11.20;46.40;;;;;;4976300;28;20817;-53
2022/11/05 10:35:48;;;;;;;17.50;16.47;;;11.30;45.10;;;;;;4989275;28;20536;-52
2022/11/05 10:38:14;;;;;;;18.13;17.13;;;11.40;44.40;;;;;;4995903;28;20479;-49
2022/11/05 10:40:48;;;;;;;17.70;16.50;;;11.40;44.20;;;;;;4995202;28;20517;-49
2022/11/05 10:43:17;;;;;;;18.47;17.47;;;11.40;44.80;;;;;;4996369;28;20459;-51
2022/11/05 10:45:57;;;;;;;18.30;17.30;;;11.40;45.10;;;;;;4994002;28;20803;-52
2022/11/05 10:48:40;;;;;;;18.27;17.10;;;11.40;45.50;;;;;;4975989;28;20480;-52
2022/11/05 10:51:07;;;;;;;18.40;17.20;;;11.50;45.10;;;;;;4992007;28;20464;-50
2022/11/05 10:53:37;;;;;;;21.50;20.10;;;11.60;44.60;;;;;;4993627;28;20452;-50
2022/11/05 10:56:03;;;;;;;17.97;16.97;;;11.60;44.30;;;;;;4988432;28;20452;-58
2022/11/05 10:58:31;;;;;;;18.87;17.67;;;11.70;44.50;;;;;;4976161;28;20921;-58
2022/11/05 11:00:57;;;;;;;18.70;17.57;;;11.70;44.50;;;;;;4970509;28;20564;-52
2022/11/05 11:03:44;;;;;;;18.97;17.77;;;11.80;44.20;;;;;;4971750;28;20532;-58
2022/11/05 11:06:19;;;;;;;18.20;17.10;;;11.80;43.70;;;;;;4971357;28;20951;-58
2022/11/05 11:08:47;;;;;;;18.27;16.97;;;11.80;43.20;;;;;;4990731;28;20786;-54
2022/11/05 11:11:32;;;;;;;17.87;16.87;;;11.90;43.30;;;;;;4999326;28;20417;-59
2022/11/05 11:14:03;;;;;;;16.93;15.97;;;11.90;43.30;;;;;;4990956;28;20448;-59
2022/11/05 11:16:34;;;;;;;17.50;16.50;;;11.90;43.30;;;;;;4990261;28;20421;-59
2022/11/05 11:19:01;;;;;;;18.77;17.57;;;12.00;43.40;;;;;;5010576;28;20424;-51
2022/11/05 11:21:29;;;;;;;18.50;17.40;;;12.00;44.20;;;;;;5009168;28;20439;-50
2022/11/05 11:24:05;;;;;;;16.40;15.50;;;12.00;43.40;;;;;;5009354;28;20925;-51
2022/11/05 11:26:40;;;;;;;17.30;16.23;;;12.10;42.70;;;;;;5008716;28;20585;-55
2022/11/05 11:29:20;;;;;;;16.50;15.50;;;12.00;42.00;;;;;;5006516;28;20434;-54
2022/11/05 11:31:46;;;;;;;16.30;15.20;;;12.00;42.30;;;;;;5004999;28;20420;-51
2022/11/05 11:34:21;;;;;;;16.90;15.90;;;12.00;42.00;;;;;;5004888;28;20419;-55
2022/11/05 11:36:52;;;;;;;17.03;15.93;;;12.10;43.00;;;;;;5008538;28;20181;-50
2022/11/05 11:39:24;;;;;;;17.77;16.57;;;12.10;42.70;;;;;;5004310;28;20471;-50
2022/11/05 11:41:52;;;;;;;16.73;15.73;;;12.10;43.00;;;;;;5009446;28;20805;-48
2022/11/05 11:44:32;;;;;;;17.03;16.03;;;12.20;43.50;;;;;;5007793;28;21135;-46
2022/11/05 11:47:03;;;;;;;16.37;15.47;;;12.20;42.90;;;;;;5007947;28;20459;-48
2022/11/05 11:49:45;;;;;;;16.70;15.70;;;12.20;41.20;;;;;;5006918;28;20451;-60
2022/11/05 11:52:19;;;;;;;17.07;16.17;;;12.20;40.90;;;;;;5007217;28;20423;-60
2022/11/05 11:54:45;;;;;;;18.13;16.93;;;12.00;43.40;;;;;;5009085;28;20415;-60
2022/11/05 11:57:25;;;;;;;17.47;16.47;;;12.10;42.50;;;;;;5007626;28;20783;-60
2022/11/05 11:59:52;;;;;;;17.73;16.73;;;12.20;42.30;;;;;;5008494;28;20543;-60
2022/11/05 12:02:36;;;;;;;14.97;14.20;;;12.20;42.00;;;;;;5010419;28;20416;-59
2022/11/05 12:05:38;;;;;;;16.00;15.20;;;12.30;41.80;;;;;;5011334;28;20423;-59
2022/11/05 12:08:29;;;;;;;16.30;15.40;;;12.30;41.40;;;;;;5014508;28;20455;-60
2022/11/05 12:11:13;;;;;;;16.37;15.40;;;12.30;40.50;;;;;;5011369;28;20988;-59
2022/11/05 12:13:50;;;;;;;15.90;15.07;;;12.40;39.80;;;;;;5011316;28;20408;-59
2022/11/05 12:16:22;;;;;;;15.57;14.77;;;12.40;39.00;;;;;;5011982;28;21268;-59
2022/11/05 12:19:01;;;;;;;15.60;14.70;;;12.30;39.80;;;;;;5010456;28;20439;-59
2022/11/05 12:22:03;;;;;;;15.67;14.97;;;12.30;39.80;;;;;;5014105;28;20404;-59
2022/11/05 12:24:51;;;;;;;15.00;14.30;;;12.40;40.00;;;;;;5013291;28;20431;-59
2022/11/05 12:27:52;;;;;;;16.40;15.50;;;12.40;39.40;;;;;;5010092;28;20466;-59
2022/11/05 12:30:19;;;;;;;17.80;16.80;;;12.20;40.50;;;;;;5012395;28;20523;-59
2022/11/05 12:33:02;;;;;;;16.90;15.90;;;12.20;42.00;;;;;;5011925;28;20412;-59
2022/11/05 12:35:38;;;;;;;16.17;15.27;;;12.30;40.90;;;;;;5012307;28;20826;-59
2022/11/05 12:38:15;;;;;;;15.90;15.10;;;12.40;39.30;;;;;;5013188;28;20451;-60
2022/11/05 12:40:53;;;;;;;15.57;14.77;;;12.20;39.90;;;;;;5011639;28;20432;-60
2022/11/05 12:43:22;;;;;;;16.50;15.60;;;12.20;39.60;;;;;;5011916;28;20427;-60
2022/11/05 12:46:00;;;;;;;16.37;15.47;;;12.30;40.00;;;;;;5010778;28;20527;-60
2022/11/05 12:48:47;;;;;;;16.23;15.33;;;12.30;39.90;;;;;;5011637;28;20482;-60
2022/11/05 12:51:37;;;;;;;15.90;15.00;;;12.20;41.30;;;;;;5011375;28;20420;-61
2022/11/05 12:54:12;;;;;;;16.77;15.77;;;12.40;40.50;;;;;;5010477;28;20412;-59
2022/11/05 12:56:40;;;;;;;16.47;15.40;;;12.20;38.70;;;;;;5011939;28;20762;-59
2022/11/05 12:59:13;;;;;;;16.60;15.60;;;11.90;39.20;;;;;;5012893;28;20482;-60
2022/11/05 13:02:08;;;;;;;16.50;15.70;;;11.90;38.80;;;;;;5012895;28;20412;-60
2022/11/05 13:04:49;;;;;;;17.57;16.50;;;11.80;40.50;;;;;;5013482;28;20431;-59
2022/11/05 13:07:25;;;;;;;17.03;16.03;;;11.70;41.00;;;;;;5013310;28;20514;-60
2022/11/05 13:09:57;;;;;;;16.67;15.67;;;11.80;41.00;;;;;;5009427;28;20408;-60
2022/11/05 13:12:26;;;;;;;17.37;16.37;;;12.00;40.80;;;;;;5012493;28;20500;-60
2022/11/05 13:14:52;;;;;;;16.90;16.07;;;11.90;38.20;;;;;;5013161;28;20420;-60
2022/11/05 13:17:21;;;;;;;18.40;17.37;;;11.90;39.70;;;;;;5012430;28;20503;-60
2022/11/05 13:19:58;;;;;;;18.60;17.40;;;11.90;39.60;;;;;;5013119;28;20212;-60
2022/11/05 13:22:43;;;;;;;18.17;17.17;;;11.90;39.90;;;;;;5012199;28;20456;-60
2022/11/05 13:25:19;;;;;;;17.07;16.13;;;11.80;39.50;;;;;;5012191;28;20416;-60
2022/11/05 13:28:04;;;;;;;17.00;16.00;;;11.70;39.20;;;;;;5011570;28;20506;-60
2022/11/05 13:30:36;;;;;;;17.07;16.07;;;11.60;40.00;;;;;;5011932;28;20423;-60
2022/11/05 13:33:20;;;;;;;16.53;15.57;;;11.70;40.30;;;;;;5012303;28;20516;-60
2022/11/05 13:39:08;;;;;;;16.53;15.43;;;11.80;39.30;;;;;;5014366;28;20396;-60